• Join FlightAware (Why Join?)
  • Login
  • US Flag 
06:13PM EDT


 

Airport Tracker/Info


-or-


 

Live Flight TrackerFlight Track Log ✈ N373SR ✈ 25-Jul-2013 ✈ KRDU - KHPN

Flight Track Log - Related Links

Times and Time Zones

All times are in EDT time to prevent confusion due to time zone crossing. See the N373SR flight status page for this flight to view local times or setup timezone preferences in your user account.

Time Position Orientation Groundspeed Altitude Reporting Facility
EDT Latitude Longitude Course Direction KTS MPH feet Rate Location/Type
02:59PM 35.8942 -78.7919 350° North 109 125 800  Level Washington Center
03:01PM 35.9358 -78.8014 350° North 119 137 1,900 840 Climbing Washington Center
03:02PM 35.9647 -78.8050 354° North 119 137 2,600 540 Climbing Washington Center
03:03PM 36.0000 -78.8167 345° North 132 152 3,000 180 Climbing Washington Center
03:04PM 36.0381 -78.7978 22° Northeast 148 170 3,000 120 Level Washington Center
03:05PM 36.0722 -78.7708 33° Northeast 151 174 3,300 360 Climbing Washington Center
03:06PM 36.1061 -78.7492 27° Northeast 139 160 3,800 660 Climbing Washington Center
03:07PM 36.1442 -78.7250 27° Northeast 132 152 4,800 840 Climbing Washington Center
03:08PM 36.1681 -78.6975 43° Northeast 119 137 5,700 840 Climbing Washington Center
03:09PM 36.1939 -78.6678 43° Northeast 123 142 6,500 780 Climbing Washington Center
03:10PM 36.2175 -78.6378 46° Northeast 126 145 7,300 780 Climbing Washington Center
03:11PM 36.2606 -78.5853 45° Northeast 141 162 8,600 600 Climbing Washington Center
03:12PM 36.2886 -78.5528 43° Northeast 146 168 9,000 180 Climbing Washington Center
03:13PM 36.3272 -78.5053 45° Northeast 154 177 9,000  Level Washington Center
03:14PM 36.3594 -78.4653 45° Northeast 169 194 9,000  Level Washington Center
03:15PM 36.4025 -78.4153 43° Northeast 174 200 9,000  Level Washington Center
03:16PM 36.4392 -78.3650 48° Northeast 179 206 9,000  Level Washington Center
03:17PM 36.4775 -78.3222 42° Northeast 179 206 9,000  Level Washington Center
03:18PM 36.5142 -78.2772 45° Northeast 184 212 9,000  Level Washington Center
03:19PM 36.5528 -78.2292 45° Northeast 184 212 9,000  Level Washington Center
03:20PM 36.5911 -78.1842 43° Northeast 184 212 9,000  Level Washington Center
03:21PM 36.6275 -78.1411 44° Northeast 184 212 9,000  Level Washington Center
03:22PM 36.6661 -78.0933 45° Northeast 184 212 9,000  Level Washington Center
03:23PM 36.7006 -78.0503 45° Northeast 184 212 9,000  Level Washington Center
03:24PM 36.7411 -78.0025 43° Northeast 189 217 9,000  Level Washington Center
03:25PM 36.7775 -77.9542 47° Northeast 184 212 9,000  Level Washington Center
03:26PM 36.8139 -77.9086 45° Northeast 184 212 9,000  Level Washington Center
03:27PM 36.8561 -77.8736 34° Northeast 184 212 9,000  Level Washington Center
03:28PM 36.8964 -77.8411 33° Northeast 179 206 9,000  Level Washington Center
03:29PM 36.9325 -77.8056 38° Northeast 179 206 9,000  Level Washington Center
03:30PM 36.9711 -77.7497 49° Northeast 173 199 9,000  Level Washington Center
03:31PM 37.0053 -77.7142 40° Northeast 180 207 9,000  Level Washington Center
03:32PM 37.0539 -77.6739 33° Northeast 186 214 9,000  Level Washington Center
03:33PM 37.0919 -77.6411 34° Northeast 181 208 9,000  Level Washington Center
03:36PM 37.2000 -77.5500 34° Northeast 185 213 9,000  Level Potomac TRACON
03:37PM 37.2333 -77.5167 39° Northeast 184 212 9,000  Level Potomac TRACON
03:38PM 37.2667 -77.4833 39° Northeast 184 212 9,000  Level Potomac TRACON
03:39PM 37.3167 -77.4333 38° Northeast 182 209 9,000  Level Potomac TRACON
03:40PM 37.3667 -77.4000 28° Northeast 183 211 9,000  Level Potomac TRACON
03:41PM 37.4000 -77.3667 38° Northeast 179 206 9,000  Level Potomac TRACON
03:42PM 37.4500 -77.3167 38° Northeast 179 206 9,000  Level Potomac TRACON
03:43PM 37.4833 -77.2833 38° Northeast 205 236 9,000  Level Potomac TRACON
03:44PM 37.5167 -77.2500 38° Northeast 186 214 9,000  Level Potomac TRACON
03:45PM 37.5667 -77.2167 28° Northeast 180 207 9,000  Level Potomac TRACON
03:46PM 37.6000 -77.1833 38° Northeast 183 211 9,000  Level Potomac TRACON
03:47PM 37.6500 -77.1333 38° Northeast 185 213 9,000  Level Potomac TRACON
03:47PM 37.6736 -77.1136 33° Northeast 179 206 9,000  Level Washington Center
03:48PM 37.7114 -77.0775 37° Northeast 189 217 9,000  Level Washington Center
03:49PM 37.7581 -77.0311 38° Northeast 184 212 9,000  Level Washington Center
03:50PM 37.7936 -77.0003 34° Northeast 184 212 9,000  Level Washington Center
03:51PM 37.8403 -76.9539 38° Northeast 184 212 9,000  Level Washington Center
03:52PM 37.8739 -76.9256 34° Northeast 185 213 9,000  Level Washington Center
03:53PM 37.9203 -76.8842 35° Northeast 194 223 9,000  Level Washington Center
03:54PM 37.9561 -76.8481 38° Northeast 183 211 9,000  Level Washington Center
03:55PM 37.9983 -76.8014 41° Northeast 183 211 9,000  Level Washington Center
03:56PM 38.0300 -76.7542 50° Northeast 183 211 9,000  Level Washington Center
03:57PM 38.0678 -76.7100 43° Northeast 183 211 9,000  Level Washington Center
03:58PM 38.1017 -76.6631 47° Northeast 178 205 9,000  Level Washington Center
03:59PM 38.1356 -76.6161 47° Northeast 178 205 9,000  Level Washington Center
04:00PM 38.1714 -76.5664 47° Northeast 183 211 9,000  Level Washington Center
04:01PM 38.2050 -76.5192 48° Northeast 183 211 9,000  Level Washington Center
04:02PM 38.2389 -76.4719 48° Northeast 183 211 9,000  Level Washington Center
04:03PM 38.2725 -76.4247 48° Northeast 183 211 9,000  Level Washington Center
04:04PM 38.3103 -76.3803 43° Northeast 183 211 9,000  Level Washington Center
04:05PM 38.3522 -76.3436 34° Northeast 178 205 9,000  Level Washington Center
04:06PM 38.3964 -76.3017 37° Northeast 178 205 9,000  Level Washington Center
04:07PM 38.4381 -76.2650 35° Northeast 178 205 9,000  Level Washington Center
04:08PM 38.4781 -76.2256 38° Northeast 178 205 9,000  Level Washington Center
04:09PM 38.5200 -76.1861 36° Northeast 178 205 9,000  Level Washington Center
04:10PM 38.5617 -76.1467 37° Northeast 178 205 9,000  Level Washington Center
04:11PM 38.6078 -76.0992 39° Northeast 183 211 9,000  Level Washington Center
04:12PM 38.6497 -76.0569 38° Northeast 183 211 9,000  Level Washington Center
04:13PM 38.6894 -76.0197 36° Northeast 183 211 9,000 -60 Level Washington Center
04:14PM 38.7333 -75.9828 33° Northeast 178 205 8,900 -300 Descending Washington Center
04:15PM 38.7753 -75.9458 34° Northeast 178 205 8,500 -420 Descending Washington Center
04:16PM 38.8128 -75.9086 38° Northeast 178 205 8,100 -300 Descending Washington Center
04:17PM 38.8506 -75.8769 33° Northeast 172 198 8,000 -60 Descending Washington Center
04:18PM 38.8900 -75.8369 38° Northeast 172 198 8,000  Level Washington Center
04:19PM 38.9319 -75.7997 35° Northeast 177 204 8,000 -240 Level Washington Center
04:20PM 38.9736 -75.7625 35° Northeast 177 204 7,600 -480 Descending Washington Center
04:21PM 39.0175 -75.7225 35° Northeast 177 204 7,100 -480 Descending Washington Center
04:22PM 39.0592 -75.6825 37° Northeast 177 204 6,700 -480 Descending Washington Center
04:23PM 39.1031 -75.6425 35° Northeast 177 204 6,200 -180 Descending Washington Center
04:25PM 39.1419 -75.5938 44° Northeast  Level FlightAware Approximate
04:32PM 39.3620 -75.2677 51° Northeast  Level FlightAware Approximate
04:32PM 39.3714 -75.2989 49° Northeast 175 201 5,100  Level Washington Center
04:33PM 39.3900 -75.2178 61° Northeast  Level FlightAware Approximate
04:34PM 39.4132 -75.1637 61° Northeast  Level FlightAware Approximate
04:34PM 39.3913 -75.2404 66° East  Level FlightAware Approximate
04:35PM 39.4375 -75.1105 49° Northeast  Level FlightAware Approximate
04:36PM 39.4687 -75.0637 49° Northeast  Level FlightAware Approximate
04:36PM 39.4667 -75.0969 95° East 170 196 5,100  Level Washington Center
04:37PM 39.5000 -75.0168 49° Northeast  Level FlightAware Approximate
04:38PM 39.5312 -74.9698 49° Northeast  Level FlightAware Approximate
04:38PM 39.4940 -75.0436 56° Northeast  Level FlightAware Approximate
04:41PM 39.6671 -74.9945 57° Northeast  Level Estimated
04:42PM 39.6631 -74.9326 95° East  Level FlightAware Approximate
04:45PM 39.6603 -74.7161 52° Northeast  Level FlightAware Approximate
04:46PM 39.6897 -74.6671 52° Northeast  Level FlightAware Approximate
04:47PM 39.7170 -74.6161 57° Northeast  Level FlightAware Approximate
04:48PM 39.7431 -74.5640 57° Northeast  Level FlightAware Approximate
04:49PM 39.7692 -74.5119 57° Northeast  Level FlightAware Approximate
04:50PM 39.7952 -74.4597 57° Northeast  Level FlightAware Approximate
04:51PM 39.8233 -74.4100 37° Northeast  Level FlightAware Approximate
04:52PM 39.8613 -74.3722 37° Northeast  Level FlightAware Approximate
04:53PM 39.8993 -74.3343 37° Northeast  Level FlightAware Approximate
04:54PM 39.9372 -74.2964 37° Northeast  Level FlightAware Approximate
04:54PM 40.0667 -74.5167 294° West 166 191 5,000  Level New York TRACON
04:55PM 39.9752 -74.2585 37° Northeast  Level FlightAware Approximate
04:55PM 40.1167 -74.5000 14° North 174 200 4,800  Level New York TRACON
04:56PM 40.0131 -74.2205 37° Northeast  Level FlightAware Approximate
04:56PM 40.1667 -74.5000 360° North 180 207 4,300  Level New York TRACON
04:57PM 40.0510 -74.1824 38° Northeast  Level FlightAware Approximate
04:57PM 40.2167 -74.5000 360° North 175 201 4,000  Level New York TRACON
04:58PM 40.0872 -74.1578 303° West  Level FlightAware Approximate
04:58PM 40.2500 -74.5000 360° North 167 192 4,000  Level New York TRACON
04:59PM 40.1098 -74.2126 294° West  Level FlightAware Approximate
04:59PM 40.2833 -74.5333 323° Northwest 187 215 4,000  Level New York TRACON
05:00PM 40.1290 -74.2699 294° West  Level FlightAware Approximate
05:00PM 40.2833 -74.6000 270° West 182 209 4,000  Level New York TRACON
05:01PM 40.3167 -74.6500 311° West 168 193 4,000  Level New York TRACON
05:02PM 40.3500 -74.6833 323° Northwest 168 193 4,000  Level New York TRACON
05:03PM 40.4000 -74.6833 360° North 166 191 4,000  Level New York TRACON
05:04PM 40.4500 -74.7000 346° North 165 190 4,000  Level New York TRACON
05:05PM 40.4833 -74.7167 339° North 160 184 4,000  Level New York TRACON
05:06PM 40.5333 -74.7333 346° North 165 190 4,000  Level New York TRACON
05:07PM 40.5833 -74.7333 360° North 163 188 4,000  Level New York TRACON
05:08PM 40.6167 -74.7167 21° North 165 190 4,000  Level New York TRACON
05:09PM 40.6667 -74.7167 360° North 160 184 4,000  Level New York TRACON
05:10PM 40.7000 -74.7000 21° North 163 188 4,000  Level New York TRACON
05:11PM 40.7333 -74.6667 37° Northeast 160 184 4,000  Level New York TRACON
05:12PM 40.7667 -74.6167 49° Northeast 160 184 4,000  Level New York TRACON
05:13PM 40.8000 -74.5833 37° Northeast 162 186 4,000  Level New York TRACON
05:14PM 40.8333 -74.5333 49° Northeast 158 182 4,000 -60 Level New York TRACON
05:15PM 40.8667 -74.5000 37° Northeast 157 181 3,900 -300 Descending New York TRACON
05:16PM 40.9000 -74.4500 49° Northeast 167 192 3,400 -480 Descending New York TRACON
05:17PM 40.9333 -74.4167 37° Northeast 168 193 3,000 -240 Descending New York TRACON
05:18PM 40.9667 -74.3833 37° Northeast 154 177 3,000  Level New York TRACON
05:19PM 41.0000 -74.3333 49° Northeast 152 175 3,000  Level New York TRACON
05:20PM 41.0333 -74.3000 37° Northeast 152 175 3,000  Level New York TRACON
05:21PM 41.0500 -74.2667 56° Northeast 151 174 3,000  Level New York TRACON
05:22PM 41.0833 -74.2167 48° Northeast 153 176 3,000  Level New York TRACON
05:23PM 41.1167 -74.1833 37° Northeast 149 171 3,000  Level New York TRACON
05:24PM 41.1500 -74.1500 37° Northeast 149 171 3,000  Level New York TRACON
05:25PM 41.1500 -74.0833 90° East 158 182 3,000  Level New York TRACON
05:26PM 41.1333 -74.0333 114° Southeast 158 182 3,000 -60 Level New York TRACON
05:27PM 41.1000 -73.9833 131° Southeast 166 191 2,900 -300 Descending New York TRACON
05:28PM 41.0667 -73.9333 131° Southeast 178 205 2,500 -480 Descending New York TRACON
05:29PM 41.0333 -73.8833 131° Southeast 174 200 2,000 -300 Descending New York TRACON
05:30PM 41.0167 -73.8500 124° Southeast 166 191 2,000  Level New York TRACON
05:31PM 40.9833 -73.8000 131° Southeast 163 188 2,000  Level New York TRACON
05:32PM 40.9500 -73.7667 143° Southeast 162 186 2,000  Level New York TRACON
05:33PM 40.9333 -73.7167 114° Southeast 158 182 2,000  Level New York TRACON
05:34PM 40.9500 -73.6667 66° East 141 162 2,000  Level New York TRACON
05:35PM 40.9833 -73.6500 21° North 124 143 2,000  Level New York TRACON
05:36PM 41.0167 -73.6667 339° North 95 109 2,000 -300 Level New York TRACON
05:37PM 41.0333 -73.6833 323° Northwest 98 113 1,400 -600 Descending New York TRACON
05:39PM 41.0667 -73.7000 348° North  Level FlightAware Approximate
05:46PM 41.0669 -73.7076 348° North  Level Estimated
05:47PM 41.0667 -73.7000 348° North  Level FlightAware Approximate